createdAt,value
2023-04-01T00:01:50.852Z,11.10
2023-04-01T00:04:42.693Z,11.10
2023-04-01T00:07:34.433Z,11.10
2023-04-01T00:10:25.617Z,11.10
2023-04-01T00:13:17.551Z,11.00
2023-04-01T00:16:19.852Z,11.00
2023-04-01T00:19:02.767Z,11.00
2023-04-01T00:21:55.662Z,11.00
2023-04-01T00:24:47.963Z,10.90
2023-04-01T00:27:39.367Z,10.80
2023-04-01T00:30:31.037Z,10.80
2023-04-01T00:33:22.655Z,10.60
2023-04-01T00:36:16.073Z,10.60
2023-04-01T00:39:07.315Z,10.40
2023-04-01T00:41:59.309Z,10.30
2023-04-01T00:44:54.367Z,10.30
2023-04-01T00:47:46.106Z,10.20
2023-04-01T00:50:39.478Z,10.20
2023-04-01T00:53:32.809Z,10.20
2023-04-01T00:59:09.662Z,10.10
2023-04-01T01:02:01.281Z,10.10
2023-04-01T01:04:53.061Z,10.10
2023-04-01T01:07:47.572Z,10.10
2023-04-01T01:10:41.153Z,10.20
2023-04-01T01:13:35.598Z,10.10
2023-04-01T01:19:19.812Z,10.20
2023-04-01T01:22:22.846Z,10.20
2023-04-01T01:25:21.616Z,10.20
2023-04-01T01:28:31.330Z,10.20
2023-04-01T01:31:26.018Z,10.20
2023-04-01T01:34:23.150Z,10.20
2023-04-01T01:37:16.694Z,10.10
2023-04-01T01:40:12.926Z,10.20
2023-04-01T01:43:07.354Z,10.20
2023-04-01T01:46:01.730Z,10.30
2023-04-01T01:48:56.413Z,10.20
2023-04-01T01:51:49.235Z,10.30
2023-04-01T01:54:52.501Z,10.20
2023-04-01T01:57:47.324Z,10.20
2023-04-01T02:00:41.644Z,10.10
2023-04-01T02:03:36.333Z,10.20
2023-04-01T02:06:30.819Z,10.20
2023-04-01T02:09:23.096Z,10.20
2023-04-01T02:12:17.997Z,10.10
2023-04-01T02:15:12.311Z,10.10
2023-04-01T02:18:04.922Z,10.10
2023-04-01T02:20:57.462Z,10.20
2023-04-01T02:23:49.381Z,10.20
2023-04-01T02:26:41.631Z,10.30
2023-04-01T02:29:33.803Z,10.40
2023-04-01T02:32:25.933Z,10.40
2023-04-01T02:35:20.129Z,10.40
2023-04-01T02:38:15.996Z,10.40
2023-04-01T02:41:08.001Z,10.40
2023-04-01T02:44:00.445Z,10.40
2023-04-01T02:46:51.754Z,10.40
2023-04-01T02:49:43.982Z,10.40
2023-04-01T02:52:35.352Z,10.30
2023-04-01T02:55:26.643Z,10.30
2023-04-01T02:58:18.066Z,10.30
2023-04-01T03:01:09.550Z,10.30
2023-04-01T03:04:00.887Z,10.40
2023-04-01T03:06:52.553Z,10.40
2023-04-01T03:09:43.950Z,10.30
2023-04-01T03:12:35.493Z,10.30
2023-04-01T03:15:26.823Z,10.40
2023-04-01T03:18:18.913Z,10.40
2023-04-01T03:21:18.476Z,10.40
2023-04-01T03:24:10.390Z,10.40
2023-04-01T03:27:01.976Z,10.30
2023-04-01T03:29:54.150Z,10.20
2023-04-01T03:32:45.536Z,10.20
2023-04-01T03:35:37.120Z,10.20
2023-04-01T03:38:28.807Z,10.10
2023-04-01T03:41:20.775Z,10.10
2023-04-01T03:44:12.590Z,10.10
2023-04-01T03:49:42.497Z,10.10
2023-04-01T03:52:34.041Z,10.10
2023-04-01T03:55:25.503Z,10.10
2023-04-01T03:58:16.823Z,10.10
2023-04-01T04:01:16.508Z,10.10
2023-04-01T04:04:08.515Z,10.20
2023-04-01T04:07:00.055Z,10.10
2023-04-01T04:09:53.057Z,10.10
2023-04-01T04:12:44.457Z,10.10
2023-04-01T04:15:35.523Z,10.10
2023-04-01T04:18:26.995Z,10.10
2023-04-01T04:21:18.726Z,10.10
2023-04-01T04:24:10.897Z,10.10
2023-04-01T04:27:18.736Z,10.10
2023-04-01T04:30:13.402Z,10.10
2023-04-01T04:33:04.970Z,10.00
2023-04-01T04:38:38.746Z,9.70
2023-04-01T04:41:30.430Z,9.70
2023-04-01T04:44:21.728Z,9.80
2023-04-01T04:47:13.147Z,9.80
2023-04-01T04:50:04.748Z,9.90
2023-04-01T04:52:56.309Z,10.00
2023-04-01T04:55:48.969Z,10.00
2023-04-01T04:58:51.142Z,10.10
2023-04-01T05:01:44.487Z,10.10
2023-04-01T05:04:40.026Z,10.10
2023-04-01T05:07:33.355Z,10.00
2023-04-01T05:10:25.123Z,9.90
2023-04-01T05:13:16.375Z,10.00
2023-04-01T05:16:12.763Z,10.00
2023-04-01T05:19:03.974Z,10.10
2023-04-01T05:21:56.368Z,10.10
2023-04-01T05:24:48.031Z,10.20
2023-04-01T05:27:39.927Z,10.20
2023-04-01T05:30:31.650Z,10.20
2023-04-01T05:33:24.264Z,10.20
2023-04-01T05:36:18.990Z,10.20
2023-04-01T05:39:10.384Z,10.20
2023-04-01T05:42:02.388Z,10.20
2023-04-01T05:44:53.822Z,10.20
2023-04-01T05:48:03.785Z,10.10
2023-04-01T05:50:56.425Z,9.90
2023-04-01T05:53:47.756Z,9.70
2023-04-01T05:56:39.146Z,9.70
2023-04-01T05:59:32.324Z,9.60
2023-04-01T06:05:12.558Z,9.80
2023-04-01T06:08:09.881Z,9.70
2023-04-01T06:11:08.242Z,9.70
2023-04-01T06:14:08.264Z,9.70
2023-04-01T06:17:08.506Z,9.70
2023-04-01T06:20:03.802Z,9.80
2023-04-01T06:23:22.705Z,9.80
2023-04-01T06:26:21.785Z,9.80
2023-04-01T06:29:31.457Z,9.80
2023-04-01T06:32:46.709Z,10.10
2023-04-01T06:35:55.187Z,10.10
2023-04-01T06:38:49.564Z,10.20
2023-04-01T06:42:06.912Z,10.40
2023-04-01T06:45:06.509Z,10.50
2023-04-01T06:48:26.290Z,10.70
2023-04-01T06:51:41.394Z,10.70
2023-04-01T06:54:43.163Z,10.80
2023-04-01T06:57:55.503Z,10.90
2023-04-01T07:06:16.497Z,11.00
2023-04-01T07:09:13.326Z,11.10
2023-04-01T07:12:26.341Z,11.10
2023-04-01T07:15:28.428Z,10.90
2023-04-01T07:18:23.559Z,10.90
2023-04-01T07:21:20.433Z,11.00
2023-04-01T07:24:18.499Z,11.20
2023-04-01T07:27:12.526Z,11.40
2023-04-01T07:30:06.731Z,11.50
2023-04-01T07:33:01.270Z,11.60
2023-04-01T07:35:56.453Z,11.70
2023-04-01T07:41:35.225Z,11.90
2023-04-01T07:47:35.840Z,11.70
2023-04-01T07:50:30.938Z,11.80
2023-04-01T07:53:26.610Z,11.90
2023-04-01T07:56:22.025Z,12.00
2023-04-01T07:59:19.465Z,12.10
2023-04-01T08:02:19.688Z,11.90
2023-04-01T08:08:01.560Z,11.90
2023-04-01T08:11:00.243Z,12.00
2023-04-01T08:14:13.617Z,11.90
2023-04-01T08:17:27.721Z,11.70
2023-04-01T08:20:28.238Z,11.80
2023-04-01T08:23:23.088Z,11.90
2023-04-01T08:26:18.367Z,11.90
2023-04-01T08:29:13.423Z,11.70
2023-04-01T08:32:08.082Z,11.70
2023-04-01T08:35:03.257Z,11.70
2023-04-01T08:37:58.794Z,11.70
2023-04-01T08:41:02.691Z,11.90
2023-04-01T08:44:16.636Z,12.00
2023-04-01T08:47:38.569Z,12.00
2023-04-01T08:50:52.553Z,12.00
2023-04-01T08:54:14.574Z,12.10
2023-04-01T08:57:09.229Z,12.30
2023-04-01T09:00:08.240Z,12.60
2023-04-01T09:06:35.925Z,13.00
2023-04-01T09:09:45.403Z,12.90
2023-04-01T09:15:54.823Z,13.00
2023-04-01T09:19:16.775Z,13.10
2023-04-01T09:22:29.933Z,13.30
2023-04-01T09:28:38.303Z,13.70
2023-04-01T09:31:55.325Z,13.90
2023-04-01T09:35:12.567Z,14.10
2023-04-01T09:38:08.802Z,14.40
2023-04-01T09:41:02.458Z,14.50
2023-04-01T09:46:54.023Z,14.50
2023-04-01T09:49:54.891Z,14.20
2023-04-01T09:52:49.988Z,14.40
2023-04-01T09:56:45.282Z,14.40
2023-04-01T10:00:14.178Z,14.50
2023-04-01T10:03:43.014Z,14.80
2023-04-01T10:07:12.447Z,14.70
2023-04-01T10:10:35.297Z,14.50
2023-04-01T10:14:03.950Z,14.40
2023-04-01T10:17:42.231Z,14.60
2023-04-01T10:20:58.866Z,14.40
2023-04-01T10:24:28.431Z,14.40
2023-04-01T10:27:31.526Z,14.40
2023-04-01T10:31:08.401Z,14.40
2023-04-01T10:34:43.178Z,14.40
2023-04-01T10:41:13.779Z,14.30
2023-04-01T10:44:59.125Z,14.20
2023-04-01T10:48:22.472Z,14.20
2023-04-01T10:51:43.345Z,14.00
2023-04-01T10:54:50.110Z,14.10
2023-04-01T10:58:16.417Z,14.10
2023-04-01T11:01:44.160Z,14.20
2023-04-01T11:05:41.452Z,14.50
2023-04-01T11:09:13.239Z,14.40
2023-04-01T11:12:52.465Z,14.30
2023-04-01T11:16:26.844Z,14.50
2023-04-01T11:19:53.784Z,14.60
2023-04-01T11:23:13.178Z,14.50
2023-04-01T11:26:10.454Z,14.30
2023-04-01T11:32:54.681Z,14.10
2023-04-01T11:36:03.872Z,13.90
2023-04-01T11:39:08.162Z,13.70
2023-04-01T11:42:22.767Z,13.50
2023-04-01T11:45:39.093Z,13.60
2023-04-01T11:48:56.629Z,13.80
2023-04-01T11:52:15.193Z,13.70
2023-04-01T11:55:12.619Z,13.80
2023-04-01T11:58:33.073Z,13.90
2023-04-01T12:01:34.768Z,14.20
2023-04-01T12:04:54.341Z,14.20
2023-04-01T12:10:57.639Z,14.20
2023-04-01T12:13:53.184Z,14.30
2023-04-01T12:16:54.590Z,14.60
2023-04-01T12:19:49.813Z,14.70
2023-04-01T12:22:48.548Z,14.70
2023-04-01T12:29:07.270Z,15.50
2023-04-01T12:32:03.531Z,16.00
2023-04-01T12:35:15.460Z,15.80
2023-04-01T12:41:12.137Z,15.90
2023-04-01T12:47:36.652Z,15.60
2023-04-01T12:50:38.555Z,15.60
2023-04-01T12:53:41.416Z,15.80
2023-04-01T12:56:37.166Z,15.90
2023-04-01T12:59:40.046Z,15.80
2023-04-01T13:02:41.355Z,15.90
2023-04-01T13:05:45.696Z,16.00
2023-04-01T13:08:42.639Z,15.90
2023-04-01T13:11:40.625Z,15.80
2023-04-01T13:14:44.544Z,16.00
2023-04-01T13:17:38.827Z,16.20
2023-04-01T13:20:40.887Z,16.20
2023-04-01T13:23:38.994Z,16.20
2023-04-01T13:26:31.957Z,16.00
2023-04-01T13:29:26.294Z,15.80
2023-04-01T13:32:43.196Z,15.80
2023-04-01T13:35:30.221Z,15.80
2023-04-01T13:38:47.496Z,15.70
2023-04-01T13:41:48.979Z,15.70
2023-04-01T13:44:44.054Z,15.70
2023-04-01T13:48:04.676Z,15.70
2023-04-01T13:54:25.656Z,15.50
2023-04-01T13:57:26.035Z,15.30
2023-04-01T14:03:49.191Z,14.90
2023-04-01T14:06:45.942Z,15.00
2023-04-01T14:10:16.502Z,14.70
2023-04-01T14:13:11.757Z,14.60
2023-04-01T14:16:31.196Z,14.50
2023-04-01T14:19:33.854Z,14.50
2023-04-01T14:22:29.952Z,14.40
2023-04-01T14:25:37.262Z,14.30
2023-04-01T14:28:33.539Z,14.10
2023-04-01T14:31:31.793Z,13.90
2023-04-01T14:34:33.416Z,13.80
2023-04-01T14:37:40.107Z,13.60
2023-04-01T14:40:36.251Z,13.40
2023-04-01T14:50:06.977Z,12.80
2023-04-01T14:53:05.824Z,12.50
2023-04-01T14:55:56.952Z,12.30
2023-04-01T14:58:51.499Z,12.10
2023-04-01T15:04:42.578Z,11.90
2023-04-01T15:11:05.023Z,11.70
2023-04-01T15:14:10.857Z,11.70
2023-04-01T15:17:10.717Z,11.70
2023-04-01T15:20:27.555Z,11.50
2023-04-01T15:23:26.710Z,11.50
2023-04-01T15:26:24.743Z,11.30
2023-04-01T15:29:28.206Z,11.20
2023-04-01T15:32:24.188Z,11.20
2023-04-01T15:35:24.405Z,11.20
2023-04-01T15:38:21.216Z,11.10
2023-04-01T15:41:18.755Z,11.00
2023-04-01T15:44:53.590Z,11.10
2023-04-01T15:50:39.750Z,11.20
2023-04-01T15:53:40.774Z,11.30
2023-04-01T15:56:52.219Z,11.40
2023-04-01T16:00:10.801Z,11.60
2023-04-01T16:06:49.949Z,13.60
2023-04-01T16:10:09.725Z,13.40
2023-04-01T16:13:08.236Z,12.60
2023-04-01T16:18:56.538Z,12.00
2023-04-01T16:24:35.001Z,11.40
2023-04-01T16:27:31.824Z,11.30
2023-04-01T16:30:39.712Z,11.20
2023-04-01T16:33:36.548Z,11.20
2023-04-01T16:36:31.736Z,10.80
2023-04-01T16:42:18.008Z,11.00
2023-04-01T16:45:20.336Z,11.00
2023-04-01T16:48:17.526Z,11.10
2023-04-01T16:51:14.017Z,11.20
2023-04-01T16:54:09.338Z,11.20
2023-04-01T16:57:11.190Z,11.20
2023-04-01T17:00:06.891Z,11.10
2023-04-01T17:05:53.274Z,11.30
2023-04-01T17:08:55.188Z,11.40
2023-04-01T17:11:49.752Z,11.50
2023-04-01T17:14:44.745Z,11.50
2023-04-01T17:17:48.200Z,11.50
2023-04-01T17:20:44.449Z,11.40
2023-04-01T17:23:38.640Z,11.20
2023-04-01T17:26:36.056Z,10.90
2023-04-01T17:29:30.518Z,10.80
2023-04-01T17:32:24.602Z,10.70
2023-04-01T17:35:19.730Z,10.50
2023-04-01T17:38:18.152Z,10.50
2023-04-01T17:41:12.629Z,10.60
2023-04-01T17:44:12.197Z,10.50
2023-04-01T17:47:20.851Z,10.50
2023-04-01T17:50:26.226Z,10.50
2023-04-01T17:53:26.766Z,10.50
2023-04-01T17:56:45.681Z,10.40
2023-04-01T17:59:40.480Z,10.50
2023-04-01T18:02:36.000Z,10.30
2023-04-01T18:05:44.193Z,10.30
2023-04-01T18:08:53.036Z,10.20
2023-04-01T18:11:48.799Z,10.10
2023-04-01T18:17:43.912Z,10.10
2023-04-01T18:20:41.439Z,9.90
2023-04-01T18:23:35.578Z,9.80
2023-04-01T18:26:30.083Z,9.80
2023-04-01T18:29:28.812Z,9.90
2023-04-01T18:32:28.412Z,9.90
2023-04-01T18:35:26.090Z,9.90
2023-04-01T18:38:20.250Z,9.80
2023-04-01T18:41:20.190Z,9.70
2023-04-01T18:44:27.415Z,9.50
2023-04-01T18:47:26.980Z,9.40
2023-04-01T18:50:23.502Z,9.40
2023-04-01T18:53:20.739Z,9.30
2023-04-01T18:56:14.792Z,9.20
2023-04-01T18:59:10.595Z,9.30
2023-04-01T19:04:51.207Z,9.20
2023-04-01T19:07:51.150Z,9.30
2023-04-01T19:10:44.789Z,9.20
2023-04-01T19:13:40.930Z,9.10
2023-04-01T19:16:40.226Z,9.00
2023-04-01T19:19:42.075Z,9.00
2023-04-01T19:22:51.384Z,8.90
2023-04-01T19:25:45.035Z,8.80
2023-04-01T19:28:42.848Z,8.70
2023-04-01T19:31:43.757Z,8.70
2023-04-01T19:34:40.816Z,8.60
2023-04-01T19:37:39.467Z,8.60
2023-04-01T19:43:33.435Z,8.50
2023-04-01T19:46:28.415Z,8.50
2023-04-01T19:49:31.398Z,8.60
2023-04-01T19:52:26.724Z,8.60
2023-04-01T19:55:23.891Z,8.60
2023-04-01T19:58:19.523Z,8.60
2023-04-01T20:01:14.097Z,8.60
2023-04-01T20:04:09.153Z,8.60
2023-04-01T20:07:04.092Z,8.60
2023-04-01T20:09:58.384Z,8.60
2023-04-01T20:12:52.315Z,8.60
2023-04-01T20:15:47.509Z,8.60
2023-04-01T20:18:46.520Z,8.60
2023-04-01T20:21:41.907Z,8.50
2023-04-01T20:27:19.584Z,8.70
2023-04-01T20:30:29.325Z,8.70
2023-04-01T20:36:19.179Z,8.60
2023-04-01T20:39:32.991Z,8.70
2023-04-01T20:42:34.499Z,8.80
2023-04-01T20:45:35.947Z,8.80
2023-04-01T20:49:14.841Z,8.70
2023-04-01T20:52:12.706Z,8.70
2023-04-01T20:55:38.122Z,8.80
2023-04-01T21:01:18.126Z,8.90
2023-04-01T21:07:18.485Z,8.90
2023-04-01T21:10:22.407Z,9.00
2023-04-01T21:13:49.508Z,9.10
2023-04-01T21:16:48.492Z,9.10
2023-04-01T21:20:05.188Z,9.10
2023-04-01T21:26:24.265Z,9.20
2023-04-01T21:32:35.570Z,9.10
2023-04-01T21:35:33.071Z,9.10
2023-04-01T21:38:52.673Z,9.10
2023-04-01T21:41:56.154Z,9.10
2023-04-01T21:44:59.782Z,9.00
2023-04-01T21:48:17.516Z,8.50
2023-04-01T21:51:52.668Z,8.40
2023-04-01T21:55:11.282Z,8.20
2023-04-01T21:58:43.235Z,8.30
2023-04-01T22:02:00.330Z,8.30
2023-04-01T22:05:00.640Z,8.10
2023-04-01T22:07:57.001Z,8.10
2023-04-01T22:10:51.780Z,8.10
2023-04-01T22:13:46.370Z,8.10
2023-04-01T22:16:41.622Z,8.10
2023-04-01T22:19:37.549Z,7.90
2023-04-01T22:25:12.756Z,7.90
2023-04-01T22:28:07.677Z,7.90
2023-04-01T22:31:01.769Z,7.90
2023-04-01T22:33:56.364Z,7.90
2023-04-01T22:39:59.356Z,8.10
2023-04-01T22:42:53.512Z,8.20
2023-04-01T22:46:04.515Z,8.40
2023-04-01T22:48:59.151Z,8.40
2023-04-01T22:51:54.101Z,8.40
2023-04-01T22:54:48.315Z,8.40
2023-04-01T22:57:44.944Z,8.50
2023-04-01T23:00:41.977Z,8.50
2023-04-01T23:03:35.569Z,8.60
2023-04-01T23:06:33.047Z,8.70
2023-04-01T23:09:25.770Z,8.70
2023-04-01T23:12:23.293Z,8.70
2023-04-01T23:15:17.712Z,8.80
2023-04-01T23:18:17.785Z,8.70
2023-04-01T23:21:17.284Z,8.80
2023-04-01T23:24:13.199Z,8.90
2023-04-01T23:27:07.813Z,8.80
2023-04-01T23:29:59.170Z,8.80
2023-04-01T23:32:50.701Z,8.70
2023-04-01T23:35:54.616Z,8.70
2023-04-01T23:38:48.230Z,8.80
2023-04-01T23:41:39.853Z,8.70
2023-04-01T23:44:32.592Z,8.90
2023-04-01T23:47:26.485Z,8.90
2023-04-01T23:53:05.071Z,8.90
2023-04-01T23:55:56.689Z,9.10
2023-04-01T23:58:52.287Z,9.10
